FDX36 EGSS-EDDF
Flight info
| Callsign | FDX36 |
|---|---|
| Flight time | 1h 14m |
| Altitude | 37000 |
| Route | DET L6 DVR UL9 KONAN UL607 SPI T180 NIVNU T847 IMCOM IMCOM1A |
| Aircraft | MD11/H-SDE1E2E3FGHIJ2J3J4J5M1RWXY/LB1D1 |
Departure
| Time | 2026-05-07 11:04 |
|---|---|
| Airport | London Stansted Airport (EGSS) |
Arrival
| Time | 2026-05-07 12:18 |
|---|---|
| Airport | Frankfurt Main Airport (EDDF) |
| Time | Latitude | Longitude | Altitude | Speed | Heading |
|---|---|---|---|---|---|
| 2026-05-07 10:41 | 51.88425 | 0.24356 | 354 ft | 0 kts | 222° |
| 2026-05-07 10:49 | 51.88429 | 0.24363 | 363 ft | 4 kts | 222° |
| 2026-05-07 10:49 | 51.88449 | 0.24393 | 360 ft | 4 kts | 223° |
| 2026-05-07 10:49 | 51.88468 | 0.24422 | 363 ft | 2 kts | 223° |
| 2026-05-07 10:50 | 51.88481 | 0.24442 | 363 ft | 4 kts | 252° |
| 2026-05-07 10:50 | 51.88482 | 0.24467 | 363 ft | 4 kts | 307° |
| 2026-05-07 10:50 | 51.88466 | 0.24497 | 363 ft | 4 kts | 313° |
| 2026-05-07 10:50 | 51.88459 | 0.24509 | 363 ft | 0 kts | 313° |
| 2026-05-07 10:57 | 51.88465 | 0.24499 | 363 ft | 4 kts | 313° |
| 2026-05-07 10:57 | 51.88498 | 0.24440 | 359 ft | 10 kts | 313° |
| 2026-05-07 10:58 | 51.88538 | 0.24366 | 361 ft | 1 kts | 295° |
| 2026-05-07 10:58 | 51.88530 | 0.24326 | 362 ft | 9 kts | 247° |
| 2026-05-07 10:58 | 51.88467 | 0.24211 | 360 ft | 18 kts | 223° |
| 2026-05-07 10:58 | 51.88361 | 0.24052 | 357 ft | 23 kts | 223° |
| 2026-05-07 10:59 | 51.88227 | 0.23853 | 362 ft | 29 kts | 223° |
| 2026-05-07 10:59 | 51.88087 | 0.23643 | 357 ft | 23 kts | 223° |
| 2026-05-07 10:59 | 51.87969 | 0.23466 | 357 ft | 24 kts | 223° |
| 2026-05-07 10:59 | 51.87851 | 0.23291 | 358 ft | 18 kts | 223° |
| 2026-05-07 11:00 | 51.87761 | 0.23156 | 358 ft | 14 kts | 224° |
| 2026-05-07 11:00 | 51.87742 | 0.23038 | 353 ft | 10 kts | 290° |
| 2026-05-07 11:00 | 51.87781 | 0.22952 | 358 ft | 9 kts | 309° |
| 2026-05-07 11:00 | 51.87789 | 0.22921 | 357 ft | 1 kts | 273° |
| 2026-05-07 11:01 | 51.87760 | 0.22858 | 355 ft | 15 kts | 227° |
| 2026-05-07 11:01 | 51.87659 | 0.22705 | 353 ft | 21 kts | 223° |
| 2026-05-07 11:01 | 51.87556 | 0.22552 | 335 ft | 20 kts | 223° |
| 2026-05-07 11:01 | 51.87452 | 0.22395 | 332 ft | 21 kts | 223° |
| 2026-05-07 11:02 | 51.87411 | 0.22216 | 332 ft | 13 kts | 287° |
| 2026-05-07 11:02 | 51.87466 | 0.22089 | 327 ft | 15 kts | 310° |
| 2026-05-07 11:02 | 51.87515 | 0.22027 | 327 ft | 2 kts | 356° |
| 2026-05-07 11:02 | 51.87546 | 0.22054 | 325 ft | 7 kts | 36° |
| 2026-05-07 11:03 | 51.87558 | 0.22070 | 327 ft | 5 kts | 39° |
| 2026-05-07 11:03 | 51.87653 | 0.22209 | 329 ft | 46 kts | 42° |
| 2026-05-07 11:03 | 51.88115 | 0.22904 | 337 ft | 133 kts | 43° |
| 2026-05-07 11:03 | 51.88925 | 0.24094 | 695 ft | 168 kts | 43° |
| 2026-05-07 11:04 | 51.89792 | 0.25345 | 1827 ft | 165 kts | 44° |
| 2026-05-07 11:04 | 51.90638 | 0.26595 | 2861 ft | 167 kts | 45° |
| 2026-05-07 11:04 | 51.91432 | 0.28014 | 3263 ft | 169 kts | 64° |
| 2026-05-07 11:04 | 51.91591 | 0.29849 | 3658 ft | 175 kts | 107° |
| 2026-05-07 11:05 | 51.91166 | 0.31863 | 4037 ft | 213 kts | 112° |
| 2026-05-07 11:05 | 51.90572 | 0.34294 | 4018 ft | 247 kts | 113° |
| 2026-05-07 11:05 | 51.89908 | 0.36930 | 3998 ft | 254 kts | 114° |
| 2026-05-07 11:05 | 51.89219 | 0.39583 | 3996 ft | 255 kts | 115° |
| 2026-05-07 11:06 | 51.88494 | 0.42213 | 3996 ft | 255 kts | 116° |
| 2026-05-07 11:06 | 51.87752 | 0.44827 | 3991 ft | 255 kts | 116° |
| 2026-05-07 11:06 | 51.87004 | 0.47434 | 3990 ft | 255 kts | 116° |
| 2026-05-07 11:06 | 51.86263 | 0.49995 | 3994 ft | 255 kts | 116° |
| 2026-05-07 11:07 | 51.85504 | 0.52603 | 3983 ft | 256 kts | 116° |
| 2026-05-07 11:07 | 51.84743 | 0.55210 | 3988 ft | 256 kts | 116° |
| 2026-05-07 11:07 | 51.83981 | 0.57819 | 3982 ft | 257 kts | 116° |
| 2026-05-07 11:07 | 51.83238 | 0.60425 | 4108 ft | 254 kts | 112° |
| 2026-05-07 11:08 | 51.82909 | 0.63246 | 4494 ft | 259 kts | 93° |
| 2026-05-07 11:08 | 51.82972 | 0.66182 | 4874 ft | 263 kts | 88° |
| 2026-05-07 11:08 | 51.83118 | 0.69133 | 4975 ft | 264 kts | 87° |
| 2026-05-07 11:08 | 51.83269 | 0.72099 | 4990 ft | 263 kts | 88° |
| 2026-05-07 11:09 | 51.83396 | 0.75081 | 5380 ft | 266 kts | 88° |
| 2026-05-07 11:09 | 51.83515 | 0.78034 | 5820 ft | 266 kts | 88° |
| 2026-05-07 11:09 | 51.83633 | 0.81052 | 6057 ft | 269 kts | 88° |
| 2026-05-07 11:09 | 51.83750 | 0.84083 | 6095 ft | 270 kts | 88° |
| 2026-05-07 11:10 | 51.83866 | 0.87117 | 6091 ft | 269 kts | 89° |
| 2026-05-07 11:10 | 51.83980 | 0.90101 | 6092 ft | 269 kts | 88° |
| 2026-05-07 11:10 | 51.84094 | 0.93127 | 6095 ft | 269 kts | 89° |
| 2026-05-07 11:10 | 51.84208 | 0.96151 | 6083 ft | 269 kts | 89° |
| 2026-05-07 11:11 | 51.84320 | 0.99178 | 6079 ft | 270 kts | 88° |
| 2026-05-07 11:11 | 51.84431 | 1.02214 | 6089 ft | 270 kts | 88° |
| 2026-05-07 11:11 | 51.84544 | 1.05255 | 6084 ft | 271 kts | 88° |
| 2026-05-07 11:11 | 51.84647 | 1.08299 | 6090 ft | 271 kts | 91° |
| 2026-05-07 11:12 | 51.84440 | 1.11303 | 6120 ft | 272 kts | 110° |
| 2026-05-07 11:12 | 51.83508 | 1.13837 | 7292 ft | 266 kts | 134° |
| 2026-05-07 11:12 | 51.81989 | 1.15539 | 8338 ft | 271 kts | 159° |
| 2026-05-07 11:12 | 51.80154 | 1.16396 | 9315 ft | 279 kts | 168° |
| 2026-05-07 11:13 | 51.78226 | 1.17003 | 10274 ft | 288 kts | 169° |
| 2026-05-07 11:13 | 51.76137 | 1.17613 | 10471 ft | 322 kts | 170° |
| 2026-05-07 11:13 | 51.73823 | 1.18292 | 10621 ft | 352 kts | 169° |
| 2026-05-07 11:13 | 51.71369 | 1.19027 | 11334 ft | 360 kts | 169° |
| 2026-05-07 11:14 | 51.68896 | 1.19780 | 12196 ft | 364 kts | 169° |
| 2026-05-07 11:14 | 51.66404 | 1.20548 | 13022 ft | 368 kts | 169° |
| 2026-05-07 11:14 | 51.63899 | 1.21324 | 13836 ft | 372 kts | 170° |
| 2026-05-07 11:14 | 51.61342 | 1.22119 | 14583 ft | 376 kts | 169° |
| 2026-05-07 11:15 | 51.58761 | 1.22922 | 15333 ft | 379 kts | 169° |
| 2026-05-07 11:15 | 51.56158 | 1.23731 | 16090 ft | 383 kts | 169° |
| 2026-05-07 11:15 | 51.53528 | 1.24549 | 16837 ft | 386 kts | 169° |
| 2026-05-07 11:15 | 51.50878 | 1.25373 | 17594 ft | 390 kts | 170° |
| 2026-05-07 11:16 | 51.48191 | 1.26206 | 18321 ft | 394 kts | 170° |
| 2026-05-07 11:16 | 51.45488 | 1.27044 | 18969 ft | 397 kts | 170° |
| 2026-05-07 11:16 | 51.42767 | 1.27886 | 19587 ft | 401 kts | 170° |
| 2026-05-07 11:16 | 51.40005 | 1.28739 | 20192 ft | 405 kts | 170° |
| 2026-05-07 11:17 | 51.37223 | 1.29597 | 20810 ft | 408 kts | 170° |
| 2026-05-07 11:17 | 51.34424 | 1.30460 | 21414 ft | 412 kts | 170° |
| 2026-05-07 11:17 | 51.31630 | 1.31321 | 22004 ft | 416 kts | 170° |
| 2026-05-07 11:17 | 51.28774 | 1.32199 | 22631 ft | 419 kts | 170° |
| 2026-05-07 11:18 | 51.25904 | 1.33218 | 23250 ft | 424 kts | 165° |
| 2026-05-07 11:18 | 51.23131 | 1.34830 | 23836 ft | 429 kts | 155° |
| 2026-05-07 11:18 | 51.20571 | 1.37332 | 24391 ft | 434 kts | 143° |
| 2026-05-07 11:18 | 51.18405 | 1.40691 | 24920 ft | 439 kts | 130° |
| 2026-05-07 11:19 | 51.16719 | 1.44790 | 25476 ft | 445 kts | 117° |
| 2026-05-07 11:19 | 51.15608 | 1.49410 | 26010 ft | 450 kts | 105° |
| 2026-05-07 11:19 | 51.15062 | 1.54334 | 26537 ft | 454 kts | 96° |
| 2026-05-07 11:19 | 51.14822 | 1.59379 | 27074 ft | 458 kts | 93° |
| 2026-05-07 11:20 | 51.14681 | 1.64484 | 27614 ft | 462 kts | 93° |
| 2026-05-07 11:20 | 51.14541 | 1.69524 | 28147 ft | 466 kts | 93° |
| 2026-05-07 11:20 | 51.14363 | 1.74695 | 28699 ft | 470 kts | 94° |
| 2026-05-07 11:20 | 51.14147 | 1.79915 | 29223 ft | 474 kts | 95° |
| 2026-05-07 11:21 | 51.13902 | 1.85172 | 29756 ft | 478 kts | 95° |
| 2026-05-07 11:21 | 51.13638 | 1.90461 | 30129 ft | 481 kts | 95° |
| 2026-05-07 11:21 | 51.13364 | 1.95796 | 30347 ft | 484 kts | 95° |
| 2026-05-07 11:21 | 51.13118 | 2.00463 | 30508 ft | 485 kts | 95° |
| 2026-05-07 11:22 | 51.12825 | 2.05868 | 30718 ft | 485 kts | 95° |
| 2026-05-07 11:22 | 51.12534 | 2.11210 | 30945 ft | 485 kts | 95° |
| 2026-05-07 11:22 | 51.12248 | 2.16501 | 31153 ft | 484 kts | 95° |
| 2026-05-07 11:22 | 51.11959 | 2.21853 | 31383 ft | 484 kts | 95° |
| 2026-05-07 11:23 | 51.11696 | 2.26718 | 31585 ft | 483 kts | 95° |
| 2026-05-07 11:23 | 51.11407 | 2.32053 | 31800 ft | 483 kts | 96° |
| 2026-05-07 11:23 | 51.11118 | 2.37343 | 32009 ft | 482 kts | 96° |
| 2026-05-07 11:23 | 51.10824 | 2.42673 | 32222 ft | 482 kts | 96° |
| 2026-05-07 11:24 | 51.10533 | 2.47912 | 32420 ft | 481 kts | 96° |
| 2026-05-07 11:24 | 51.10236 | 2.53219 | 32622 ft | 481 kts | 96° |
| 2026-05-07 11:24 | 51.09937 | 2.58518 | 32821 ft | 481 kts | 96° |
| 2026-05-07 11:24 | 51.09577 | 2.63808 | 32988 ft | 480 kts | 100° |
| 2026-05-07 11:25 | 51.08914 | 2.68996 | 33184 ft | 479 kts | 105° |
| 2026-05-07 11:25 | 51.08043 | 2.74122 | 33368 ft | 478 kts | 107° |
| 2026-05-07 11:25 | 51.07088 | 2.79199 | 33552 ft | 477 kts | 108° |
| 2026-05-07 11:25 | 51.06132 | 2.84178 | 33735 ft | 477 kts | 108° |
| 2026-05-07 11:26 | 51.05174 | 2.89218 | 33893 ft | 477 kts | 108° |
| 2026-05-07 11:26 | 51.04226 | 2.94285 | 34056 ft | 477 kts | 107° |
| 2026-05-07 11:26 | 51.03289 | 2.99363 | 34198 ft | 477 kts | 107° |
| 2026-05-07 11:26 | 51.02364 | 3.04409 | 34325 ft | 477 kts | 107° |
| 2026-05-07 11:27 | 51.01437 | 3.09482 | 34456 ft | 477 kts | 107° |
| 2026-05-07 11:27 | 51.00527 | 3.14454 | 34575 ft | 477 kts | 107° |
| 2026-05-07 11:27 | 50.99595 | 3.19530 | 34697 ft | 477 kts | 107° |
| 2026-05-07 11:27 | 50.98665 | 3.24582 | 34808 ft | 477 kts | 107° |
| 2026-05-07 11:28 | 50.97733 | 3.29630 | 34930 ft | 477 kts | 107° |
| 2026-05-07 11:28 | 50.96797 | 3.34680 | 35041 ft | 477 kts | 107° |
| 2026-05-07 11:28 | 50.95856 | 3.39740 | 35164 ft | 477 kts | 107° |
| 2026-05-07 11:28 | 50.94925 | 3.44735 | 35287 ft | 477 kts | 108° |
| 2026-05-07 11:29 | 50.93981 | 3.49783 | 35408 ft | 477 kts | 108° |
| 2026-05-07 11:29 | 50.93035 | 3.54829 | 35532 ft | 477 kts | 108° |
| 2026-05-07 11:29 | 50.92087 | 3.59874 | 35656 ft | 476 kts | 108° |
| 2026-05-07 11:29 | 50.91137 | 3.64852 | 35786 ft | 476 kts | 108° |
| 2026-05-07 11:30 | 50.90160 | 3.69869 | 35909 ft | 476 kts | 108° |
| 2026-05-07 11:30 | 50.89178 | 3.74891 | 36041 ft | 476 kts | 108° |
| 2026-05-07 11:30 | 50.88202 | 3.79895 | 36159 ft | 476 kts | 108° |
| 2026-05-07 11:30 | 50.87228 | 3.84907 | 36286 ft | 476 kts | 108° |
| 2026-05-07 11:31 | 50.86256 | 3.89914 | 36418 ft | 476 kts | 108° |
| 2026-05-07 11:31 | 50.85283 | 3.94928 | 36535 ft | 476 kts | 108° |
| 2026-05-07 11:31 | 50.84308 | 3.99942 | 36670 ft | 476 kts | 108° |
| 2026-05-07 11:31 | 50.83333 | 4.04949 | 36802 ft | 475 kts | 108° |
| 2026-05-07 11:32 | 50.81379 | 4.14932 | 37057 ft | 476 kts | 108° |
| 2026-05-07 11:32 | 50.80408 | 4.19875 | 37070 ft | 478 kts | 108° |
| 2026-05-07 11:33 | 50.78425 | 4.29929 | 37072 ft | 479 kts | 108° |
| 2026-05-07 11:33 | 50.76432 | 4.39981 | 37074 ft | 479 kts | 108° |
| 2026-05-07 11:34 | 50.74437 | 4.49991 | 37076 ft | 479 kts | 108° |
| 2026-05-07 11:34 | 50.72423 | 4.60045 | 37071 ft | 479 kts | 108° |
| 2026-05-07 11:35 | 50.70763 | 4.68397 | 37057 ft | 480 kts | 108° |
| 2026-05-07 11:35 | 50.68801 | 4.78442 | 37061 ft | 480 kts | 108° |
| 2026-05-07 11:36 | 50.66853 | 4.88455 | 37064 ft | 480 kts | 108° |
| 2026-05-07 11:36 | 50.64832 | 4.98513 | 37062 ft | 480 kts | 109° |
| 2026-05-07 11:37 | 50.62772 | 5.08514 | 37064 ft | 480 kts | 109° |
| 2026-05-07 11:37 | 50.60718 | 5.18459 | 37061 ft | 480 kts | 109° |
| 2026-05-07 11:38 | 50.58645 | 5.28474 | 37058 ft | 480 kts | 109° |
| 2026-05-07 11:38 | 50.56566 | 5.38478 | 37057 ft | 480 kts | 109° |
| 2026-05-07 11:39 | 50.54482 | 5.48455 | 37058 ft | 480 kts | 109° |
| 2026-05-07 11:39 | 50.52399 | 5.58375 | 37056 ft | 480 kts | 109° |
| 2026-05-07 11:40 | 50.50387 | 5.68394 | 37027 ft | 479 kts | 107° |
| 2026-05-07 11:40 | 50.49444 | 5.73380 | 36753 ft | 474 kts | 107° |
| 2026-05-07 11:40 | 50.48515 | 5.78371 | 36427 ft | 474 kts | 107° |
| 2026-05-07 11:40 | 50.47593 | 5.83336 | 35963 ft | 473 kts | 107° |
| 2026-05-07 11:41 | 50.46672 | 5.88289 | 35372 ft | 472 kts | 107° |
| 2026-05-07 11:41 | 50.45757 | 5.93182 | 34803 ft | 471 kts | 107° |
| 2026-05-07 11:41 | 50.44830 | 5.98114 | 34236 ft | 471 kts | 107° |
| 2026-05-07 11:41 | 50.43900 | 6.03045 | 33607 ft | 470 kts | 106° |
| 2026-05-07 11:42 | 50.42964 | 6.07989 | 32994 ft | 472 kts | 106° |
| 2026-05-07 11:42 | 50.42027 | 6.12929 | 32399 ft | 472 kts | 106° |
| 2026-05-07 11:42 | 50.41097 | 6.17815 | 31833 ft | 474 kts | 107° |
| 2026-05-07 11:42 | 50.40155 | 6.22750 | 31252 ft | 475 kts | 107° |
| 2026-05-07 11:43 | 50.39205 | 6.27715 | 30644 ft | 475 kts | 107° |
| 2026-05-07 11:43 | 50.38255 | 6.32664 | 30030 ft | 476 kts | 107° |
| 2026-05-07 11:43 | 50.37286 | 6.37636 | 29355 ft | 477 kts | 108° |
| 2026-05-07 11:43 | 50.36439 | 6.42681 | 28711 ft | 475 kts | 101° |
| 2026-05-07 11:44 | 50.35930 | 6.47716 | 28070 ft | 472 kts | 97° |
| 2026-05-07 11:44 | 50.35592 | 6.52820 | 27469 ft | 468 kts | 95° |
| 2026-05-07 11:44 | 50.35321 | 6.57869 | 26835 ft | 463 kts | 95° |
| 2026-05-07 11:44 | 50.35059 | 6.62887 | 26224 ft | 461 kts | 95° |
| 2026-05-07 11:45 | 50.34783 | 6.67871 | 25618 ft | 456 kts | 95° |
| 2026-05-07 11:45 | 50.34495 | 6.72753 | 25017 ft | 453 kts | 95° |
| 2026-05-07 11:45 | 50.34194 | 6.77659 | 24402 ft | 450 kts | 96° |
| 2026-05-07 11:45 | 50.33890 | 6.82511 | 23783 ft | 444 kts | 96° |
| 2026-05-07 11:46 | 50.33301 | 6.87243 | 23081 ft | 441 kts | 107° |
| 2026-05-07 11:46 | 50.32241 | 6.91729 | 22498 ft | 436 kts | 114° |
| 2026-05-07 11:46 | 50.30977 | 6.96017 | 22137 ft | 432 kts | 116° |
| 2026-05-07 11:46 | 50.29657 | 7.00222 | 21992 ft | 431 kts | 116° |
| 2026-05-07 11:47 | 50.28348 | 7.04373 | 21661 ft | 433 kts | 116° |
| 2026-05-07 11:47 | 50.27048 | 7.08564 | 21025 ft | 428 kts | 116° |
| 2026-05-07 11:47 | 50.25774 | 7.12740 | 20409 ft | 423 kts | 116° |
| 2026-05-07 11:47 | 50.24523 | 7.16886 | 19816 ft | 418 kts | 115° |
| 2026-05-07 11:48 | 50.23291 | 7.20995 | 19231 ft | 416 kts | 115° |
| 2026-05-07 11:48 | 50.22065 | 7.25091 | 18656 ft | 414 kts | 115° |
| 2026-05-07 11:48 | 50.20854 | 7.29136 | 18037 ft | 409 kts | 115° |
| 2026-05-07 11:48 | 50.19675 | 7.33155 | 17420 ft | 405 kts | 113° |
| 2026-05-07 11:49 | 50.18614 | 7.37215 | 16817 ft | 404 kts | 111° |
| 2026-05-07 11:49 | 50.17622 | 7.41311 | 16211 ft | 403 kts | 110° |
| 2026-05-07 11:49 | 50.16661 | 7.45395 | 15645 ft | 399 kts | 109° |
| 2026-05-07 11:49 | 50.15727 | 7.49388 | 15062 ft | 394 kts | 110° |
| 2026-05-07 11:50 | 50.14783 | 7.53407 | 14493 ft | 393 kts | 109° |
| 2026-05-07 11:50 | 50.13844 | 7.57387 | 13934 ft | 392 kts | 110° |
| 2026-05-07 11:50 | 50.12907 | 7.61332 | 13378 ft | 387 kts | 110° |
| 2026-05-07 11:50 | 50.11972 | 7.65254 | 13050 ft | 383 kts | 110° |
| 2026-05-07 11:51 | 50.10845 | 7.69025 | 12984 ft | 384 kts | 119° |
| 2026-05-07 11:51 | 50.09435 | 7.72586 | 12917 ft | 386 kts | 123° |
| 2026-05-07 11:51 | 50.07940 | 7.75993 | 12824 ft | 384 kts | 125° |
| 2026-05-07 11:51 | 50.06402 | 7.79399 | 12297 ft | 381 kts | 125° |
| 2026-05-07 11:52 | 50.04877 | 7.82762 | 11915 ft | 378 kts | 125° |
| 2026-05-07 11:52 | 50.03387 | 7.86069 | 11541 ft | 377 kts | 125° |
| 2026-05-07 11:52 | 50.01899 | 7.89410 | 11188 ft | 374 kts | 123° |
| 2026-05-07 11:52 | 50.00666 | 7.92968 | 11072 ft | 374 kts | 110° |
| 2026-05-07 11:53 | 50.00154 | 7.96887 | 11046 ft | 371 kts | 89° |
| 2026-05-07 11:53 | 50.00528 | 8.00829 | 10938 ft | 369 kts | 74° |
| 2026-05-07 11:53 | 50.01206 | 8.04664 | 10694 ft | 365 kts | 72° |
| 2026-05-07 11:53 | 50.02078 | 8.08391 | 10647 ft | 366 kts | 65° |
| 2026-05-07 11:54 | 50.03104 | 8.11956 | 10684 ft | 365 kts | 64° |
| 2026-05-07 11:54 | 50.04148 | 8.15564 | 10899 ft | 366 kts | 65° |
| 2026-05-07 11:54 | 50.05158 | 8.19217 | 11013 ft | 368 kts | 66° |
| 2026-05-07 11:54 | 50.06133 | 8.22925 | 11036 ft | 368 kts | 67° |
| 2026-05-07 11:55 | 50.07071 | 8.26631 | 11038 ft | 367 kts | 67° |
| 2026-05-07 11:55 | 50.07991 | 8.30353 | 11033 ft | 367 kts | 68° |
| 2026-05-07 11:55 | 50.08885 | 8.34018 | 11038 ft | 367 kts | 68° |
| 2026-05-07 11:55 | 50.09788 | 8.37758 | 10846 ft | 366 kts | 68° |
| 2026-05-07 11:56 | 50.10675 | 8.41464 | 10573 ft | 365 kts | 68° |
| 2026-05-07 11:56 | 50.11561 | 8.45170 | 10310 ft | 363 kts | 68° |
| 2026-05-07 11:56 | 50.12441 | 8.48853 | 10045 ft | 360 kts | 68° |
| 2026-05-07 11:56 | 50.13291 | 8.52412 | 9764 ft | 347 kts | 68° |
| 2026-05-07 11:57 | 50.14112 | 8.55859 | 9459 ft | 332 kts | 68° |
| 2026-05-07 11:57 | 50.14902 | 8.59170 | 9150 ft | 319 kts | 68° |
| 2026-05-07 11:57 | 50.15660 | 8.62350 | 8845 ft | 299 kts | 68° |
| 2026-05-07 11:57 | 50.16362 | 8.65306 | 8540 ft | 283 kts | 68° |
| 2026-05-07 11:58 | 50.17047 | 8.68186 | 8231 ft | 281 kts | 68° |
| 2026-05-07 11:58 | 50.17713 | 8.71002 | 7950 ft | 278 kts | 68° |
| 2026-05-07 11:58 | 50.18390 | 8.73852 | 7650 ft | 276 kts | 68° |
| 2026-05-07 11:58 | 50.19042 | 8.76608 | 7390 ft | 273 kts | 68° |
| 2026-05-07 11:59 | 50.19701 | 8.79403 | 7109 ft | 273 kts | 68° |
| 2026-05-07 11:59 | 50.20354 | 8.82176 | 6829 ft | 272 kts | 68° |
| 2026-05-07 11:59 | 50.21005 | 8.84946 | 6529 ft | 271 kts | 68° |
| 2026-05-07 11:59 | 50.21653 | 8.87702 | 6242 ft | 270 kts | 68° |
| 2026-05-07 12:00 | 50.22296 | 8.90447 | 5944 ft | 268 kts | 68° |
| 2026-05-07 12:00 | 50.22937 | 8.93180 | 5646 ft | 267 kts | 68° |
| 2026-05-07 12:00 | 50.23574 | 8.95899 | 5364 ft | 266 kts | 68° |
| 2026-05-07 12:00 | 50.24205 | 8.98600 | 5115 ft | 265 kts | 68° |
| 2026-05-07 12:01 | 50.24838 | 9.01307 | 5013 ft | 265 kts | 68° |
| 2026-05-07 12:01 | 50.25468 | 9.04006 | 5003 ft | 264 kts | 68° |
| 2026-05-07 12:01 | 50.26087 | 9.06666 | 5010 ft | 264 kts | 68° |
| 2026-05-07 12:01 | 50.26714 | 9.09360 | 5009 ft | 264 kts | 68° |
| 2026-05-07 12:02 | 50.27343 | 9.12065 | 5010 ft | 264 kts | 68° |
| 2026-05-07 12:02 | 50.27969 | 9.14763 | 5006 ft | 264 kts | 68° |
| 2026-05-07 12:02 | 50.28592 | 9.17460 | 5005 ft | 264 kts | 68° |
| 2026-05-07 12:02 | 50.29215 | 9.20152 | 5014 ft | 262 kts | 68° |
| 2026-05-07 12:03 | 50.29835 | 9.22833 | 5011 ft | 262 kts | 68° |
| 2026-05-07 12:03 | 50.30453 | 9.25513 | 5008 ft | 262 kts | 67° |
| 2026-05-07 12:03 | 50.31064 | 9.28163 | 5010 ft | 261 kts | 67° |
| 2026-05-07 12:03 | 50.31680 | 9.30838 | 5011 ft | 262 kts | 68° |
| 2026-05-07 12:04 | 50.32297 | 9.33515 | 5008 ft | 262 kts | 68° |
| 2026-05-07 12:04 | 50.32923 | 9.36198 | 5011 ft | 262 kts | 67° |
| 2026-05-07 12:04 | 50.33547 | 9.38884 | 5004 ft | 263 kts | 68° |
| 2026-05-07 12:04 | 50.33999 | 9.41658 | 5003 ft | 265 kts | 85° |
| 2026-05-07 12:05 | 50.33665 | 9.44501 | 5003 ft | 269 kts | 113° |
| 2026-05-07 12:05 | 50.32546 | 9.46801 | 5011 ft | 272 kts | 140° |
| 2026-05-07 12:05 | 50.30881 | 9.48091 | 5018 ft | 272 kts | 168° |
| 2026-05-07 12:05 | 50.29016 | 9.48085 | 5007 ft | 268 kts | 196° |
| 2026-05-07 12:06 | 50.27377 | 9.46774 | 5006 ft | 264 kts | 223° |
| 2026-05-07 12:06 | 50.26151 | 9.44659 | 5003 ft | 262 kts | 238° |
| 2026-05-07 12:06 | 50.25240 | 9.42231 | 5007 ft | 260 kts | 246° |
| 2026-05-07 12:06 | 50.24574 | 9.39627 | 5015 ft | 259 kts | 253° |
| 2026-05-07 12:07 | 50.24003 | 9.36965 | 5011 ft | 259 kts | 254° |
| 2026-05-07 12:07 | 50.23435 | 9.34294 | 5004 ft | 258 kts | 253° |
| 2026-05-07 12:07 | 50.22856 | 9.31625 | 5010 ft | 259 kts | 253° |
| 2026-05-07 12:07 | 50.22275 | 9.29003 | 5002 ft | 259 kts | 253° |
| 2026-05-07 12:08 | 50.21678 | 9.26346 | 5008 ft | 259 kts | 252° |
| 2026-05-07 12:08 | 50.21076 | 9.23692 | 5010 ft | 259 kts | 252° |
| 2026-05-07 12:08 | 50.20472 | 9.21049 | 5014 ft | 258 kts | 252° |
| 2026-05-07 12:08 | 50.19865 | 9.18404 | 5002 ft | 258 kts | 252° |
| 2026-05-07 12:09 | 50.19257 | 9.15774 | 5010 ft | 258 kts | 252° |
| 2026-05-07 12:09 | 50.18647 | 9.13135 | 5012 ft | 258 kts | 252° |
| 2026-05-07 12:09 | 50.18036 | 9.10505 | 5012 ft | 258 kts | 252° |
| 2026-05-07 12:09 | 50.17425 | 9.07880 | 5011 ft | 258 kts | 252° |
| 2026-05-07 12:10 | 50.16817 | 9.05278 | 5006 ft | 258 kts | 252° |
| 2026-05-07 12:10 | 50.16201 | 9.02638 | 5004 ft | 258 kts | 252° |
| 2026-05-07 12:10 | 50.15612 | 9.00126 | 5004 ft | 236 kts | 251° |
| 2026-05-07 12:10 | 50.15051 | 8.97732 | 5014 ft | 232 kts | 252° |
| 2026-05-07 12:11 | 50.14502 | 8.95395 | 5025 ft | 221 kts | 253° |
| 2026-05-07 12:11 | 50.14005 | 8.93297 | 4999 ft | 193 kts | 252° |
| 2026-05-07 12:11 | 50.13567 | 8.91444 | 5004 ft | 179 kts | 253° |
| 2026-05-07 12:11 | 50.13144 | 8.89622 | 5013 ft | 177 kts | 253° |
| 2026-05-07 12:12 | 50.12724 | 8.87817 | 5007 ft | 177 kts | 253° |
| 2026-05-07 12:12 | 50.12316 | 8.86071 | 4744 ft | 165 kts | 253° |
| 2026-05-07 12:12 | 50.11933 | 8.84443 | 4556 ft | 157 kts | 253° |
| 2026-05-07 12:12 | 50.11560 | 8.82853 | 4339 ft | 156 kts | 254° |
| 2026-05-07 12:13 | 50.11190 | 8.81272 | 4134 ft | 155 kts | 252° |
| 2026-05-07 12:13 | 50.10819 | 8.79695 | 3930 ft | 154 kts | 253° |
| 2026-05-07 12:13 | 50.10449 | 8.78124 | 3731 ft | 155 kts | 253° |
| 2026-05-07 12:13 | 50.10082 | 8.76568 | 3530 ft | 155 kts | 252° |
| 2026-05-07 12:14 | 50.09710 | 8.74999 | 3350 ft | 154 kts | 253° |
| 2026-05-07 12:14 | 50.09340 | 8.73430 | 3139 ft | 154 kts | 252° |
| 2026-05-07 12:14 | 50.08971 | 8.71876 | 2914 ft | 152 kts | 252° |
| 2026-05-07 12:14 | 50.08608 | 8.70345 | 2718 ft | 151 kts | 252° |
| 2026-05-07 12:15 | 50.08242 | 8.68801 | 2496 ft | 152 kts | 252° |
| 2026-05-07 12:15 | 50.07875 | 8.67254 | 2288 ft | 152 kts | 253° |
| 2026-05-07 12:15 | 50.07511 | 8.65718 | 2081 ft | 151 kts | 252° |
| 2026-05-07 12:15 | 50.07149 | 8.64192 | 1888 ft | 151 kts | 252° |
| 2026-05-07 12:16 | 50.06785 | 8.62656 | 1671 ft | 150 kts | 252° |
| 2026-05-07 12:16 | 50.06426 | 8.61147 | 1456 ft | 146 kts | 253° |
| 2026-05-07 12:16 | 50.06076 | 8.59673 | 1251 ft | 145 kts | 253° |
| 2026-05-07 12:16 | 50.05730 | 8.58211 | 1055 ft | 143 kts | 251° |
| 2026-05-07 12:17 | 50.05381 | 8.56758 | 841 ft | 142 kts | 250° |
| 2026-05-07 12:17 | 50.05041 | 8.55335 | 670 ft | 142 kts | 251° |
| 2026-05-07 12:17 | 50.04706 | 8.53892 | 490 ft | 140 kts | 249° |
| 2026-05-07 12:17 | 50.04371 | 8.52490 | 362 ft | 129 kts | 250° |
| 2026-05-07 12:18 | 50.04092 | 8.51325 | 335 ft | 102 kts | 250° |
| 2026-05-07 12:18 | 50.03905 | 8.50549 | 325 ft | 40 kts | 247° |
| 2026-05-07 12:18 | 50.03799 | 8.50331 | 323 ft | 17 kts | 223° |
| 2026-05-07 12:18 | 50.03709 | 8.50213 | 323 ft | 16 kts | 213° |
| 2026-05-07 12:19 | 50.03634 | 8.50215 | 327 ft | 8 kts | 137° |
| 2026-05-07 12:19 | 50.03628 | 8.50248 | 328 ft | 7 kts | 96° |
| 2026-05-07 12:19 | 50.03647 | 8.50365 | 329 ft | 13 kts | 69° |
| 2026-05-07 12:19 | 50.03677 | 8.50489 | 333 ft | 11 kts | 69° |
| 2026-05-07 12:20 | 50.03703 | 8.50597 | 335 ft | 10 kts | 69° |
| 2026-05-07 12:20 | 50.03725 | 8.50689 | 335 ft | 8 kts | 69° |
| 2026-05-07 12:20 | 50.03729 | 8.50705 | 336 ft | 3 kts | 69° |
| 2026-05-07 12:20 | 50.03742 | 8.50760 | 335 ft | 6 kts | 69° |
| 2026-05-07 12:21 | 50.03755 | 8.50815 | 336 ft | 6 kts | 72° |
| 2026-05-07 12:21 | 50.03760 | 8.50909 | 346 ft | 11 kts | 98° |
| 2026-05-07 12:21 | 50.03729 | 8.51039 | 353 ft | 14 kts | 114° |
| 2026-05-07 12:21 | 50.03681 | 8.51197 | 360 ft | 18 kts | 116° |
| 2026-05-07 12:22 | 50.03623 | 8.51380 | 360 ft | 20 kts | 116° |
| 2026-05-07 12:22 | 50.03560 | 8.51581 | 365 ft | 19 kts | 116° |
| 2026-05-07 12:22 | 50.03515 | 8.51737 | 367 ft | 15 kts | 104° |
| 2026-05-07 12:22 | 50.03519 | 8.51903 | 360 ft | 17 kts | 83° |
| 2026-05-07 12:23 | 50.03531 | 8.52065 | 360 ft | 12 kts | 83° |
| 2026-05-07 12:23 | 50.03542 | 8.52199 | 351 ft | 8 kts | 83° |
| 2026-05-07 12:23 | 50.03555 | 8.52316 | 351 ft | 10 kts | 76° |
| 2026-05-07 12:23 | 50.03571 | 8.52398 | 354 ft | 6 kts | 71° |
| 2026-05-07 12:24 | 50.03582 | 8.52445 | 355 ft | 9 kts | 70° |
| 2026-05-07 12:24 | 50.03603 | 8.52540 | 356 ft | 3 kts | 70° |
| 2026-05-07 12:24 | 50.03605 | 8.52549 | 355 ft | 0 kts | 71° |
| 2026-05-07 12:24 | 50.03606 | 8.52571 | 356 ft | 5 kts | 89° |
| 2026-05-07 12:25 | 50.03604 | 8.52621 | 352 ft | 9 kts | 90° |
| 2026-05-07 12:25 | 50.03624 | 8.52750 | 355 ft | 13 kts | 73° |
| 2026-05-07 12:25 | 50.03597 | 8.52883 | 356 ft | 9 kts | 131° |
| 2026-05-07 12:25 | 50.03591 | 8.52998 | 354 ft | 9 kts | 72° |
| 2026-05-07 12:26 | 50.03605 | 8.53053 | 353 ft | 6 kts | 68° |
| 2026-05-07 12:26 | 50.03630 | 8.53147 | 355 ft | 13 kts | 68° |
| 2026-05-07 12:26 | 50.03656 | 8.53249 | 355 ft | 9 kts | 68° |
| 2026-05-07 12:26 | 50.03678 | 8.53335 | 355 ft | 8 kts | 68° |
| 2026-05-07 12:27 | 50.03696 | 8.53412 | 356 ft | 7 kts | 72° |
| 2026-05-07 12:27 | 50.03711 | 8.53484 | 357 ft | 7 kts | 72° |
| 2026-05-07 12:27 | 50.03732 | 8.53526 | 360 ft | 3 kts | 29° |
| 2026-05-07 12:27 | 50.03748 | 8.53528 | 360 ft | 3 kts | 0° |
| 2026-05-07 12:28 | 50.03779 | 8.53516 | 353 ft | 5 kts | 343° |
| 2026-05-07 12:28 | 50.03803 | 8.53504 | 356 ft | 2 kts | 341° |
| 2026-05-07 12:28 | 50.03813 | 8.53499 | 356 ft | 2 kts | 341° |
| 2026-05-07 12:28 | 50.03815 | 8.53498 | 356 ft | 0 kts | 341° |